Weather at Illertissen Airfield

Public forecast

Using degrees Celsius for public forecast. Weather courtesy of forecast.io.

Closest aviation weather report (METAR) to Illertissen Airfield

Closest report is Laupheim Air Base, 9.1 nm (16.9 km) W. Retrieved 2020/10/31 04:20 UTC (0 seconds ago):

ETHL 310420Z AUTO 00000KT 0350 // ////// 08/07 Q1025 ///

Closest aviation forecast (TAF) to Illertissen Airfield

Forecast is more than 12 hours old.

Closest forecast is Laupheim Air Base, 9.1 nm (16.9 km) W. Retrieved 2017/01/30 06:45 UTC (4 years ago):

TAF TAF COR ETHL 300542Z 3006/3018 22005KT 4000 BR SCT100 BKN220 BECMG 3008/3010 23005KT 6000 RA SCT040 BKN060 TEMPO 3009/3018 22012KT 3000 -FZRA BKN012 BKN020